createdAt,value
2023-01-19T00:04:53.927Z,13.60
2023-01-19T00:09:58.392Z,11.95
2023-01-19T00:15:01.458Z,13.27
2023-01-19T00:20:04.966Z,12.70
2023-01-19T00:25:10.252Z,13.57
2023-01-19T00:30:13.789Z,14.57
2023-01-19T00:35:18.298Z,13.02
2023-01-19T00:40:22.752Z,13.95
2023-01-19T00:45:25.979Z,14.02
2023-01-19T00:50:29.962Z,14.32
2023-01-19T00:55:34.445Z,14.18
2023-01-19T01:00:37.536Z,14.13
2023-01-19T01:05:41.530Z,14.32
2023-01-19T01:10:46.026Z,13.63
2023-01-19T01:15:50.387Z,13.50
2023-01-19T01:20:55.335Z,13.45
2023-01-19T01:26:00.951Z,13.45
2023-01-19T01:31:04.041Z,12.40
2023-01-19T01:36:07.604Z,11.60
2023-01-19T01:41:12.653Z,10.80
2023-01-19T01:46:17.216Z,11.13
2023-01-19T01:51:26.446Z,11.40
2023-01-19T01:56:33.747Z,11.55
2023-01-19T02:01:55.338Z,12.20
2023-01-19T02:07:15.992Z,10.63
2023-01-19T02:12:37.955Z,8.55
2023-01-19T02:17:41.047Z,10.90
2023-01-19T02:22:47.877Z,11.52
2023-01-19T02:27:52.672Z,10.75
2023-01-19T02:32:55.778Z,11.52
2023-01-19T02:37:58.976Z,11.98
2023-01-19T02:43:04.204Z,11.40
2023-01-19T02:48:07.968Z,10.10
2023-01-19T02:53:22.292Z,9.55
2023-01-19T02:58:32.961Z,7.88
2023-01-19T03:03:38.555Z,7.57
2023-01-19T03:08:45.180Z,7.93
2023-01-19T03:13:52.620Z,7.50
2023-01-19T03:18:56.770Z,7.53
2023-01-19T03:24:01.928Z,6.88
2023-01-19T03:29:07.898Z,7.28
2023-01-19T03:34:12.808Z,6.32
2023-01-19T03:39:17.701Z,5.75
2023-01-19T03:44:22.377Z,4.95
2023-01-19T03:49:25.502Z,3.85
2023-01-19T03:54:28.993Z,2.80
2023-01-19T03:59:33.406Z,1.13
2023-01-19T04:04:36.457Z,0.80
2023-01-19T04:09:39.587Z,0.70
2023-01-19T04:14:44.028Z,1.30
2023-01-19T04:19:47.121Z,1.10
2023-01-19T04:24:50.161Z,1.00
2023-01-19T04:29:54.661Z,2.08
2023-01-19T04:34:57.759Z,1.20
2023-01-19T04:40:00.868Z,1.50
2023-01-19T04:45:05.711Z,0.90
2023-01-19T04:50:09.634Z,1.40
2023-01-19T04:55:12.796Z,1.00
2023-01-19T05:00:18.616Z,1.13
2023-01-19T05:05:21.707Z,1.10
2023-01-19T05:10:25.399Z,1.20
2023-01-19T05:15:29.935Z,1.40
2023-01-19T05:20:33.049Z,1.92
2023-01-19T05:25:36.197Z,2.08
2023-01-19T05:30:42.845Z,1.58
2023-01-19T05:35:45.929Z,1.52
2023-01-19T05:40:49.102Z,1.00
2023-01-19T05:45:53.710Z,1.20
2023-01-19T05:50:59.899Z,1.20
2023-01-19T05:56:03.413Z,1.15
2023-01-19T06:01:08.594Z,0.85
2023-01-19T06:06:12.534Z,1.30
2023-01-19T06:11:15.565Z,1.45
2023-01-19T06:16:19.997Z,2.80
2023-01-19T06:21:23.187Z,2.03
2023-01-19T06:26:26.352Z,1.92
2023-01-19T06:31:30.934Z,2.08
2023-01-19T06:36:34.107Z,1.88
2023-01-19T06:41:37.543Z,1.50
2023-01-19T06:46:42.102Z,2.40
2023-01-19T06:51:45.189Z,1.70
2023-01-19T06:56:48.279Z,2.58
2023-01-19T07:01:52.904Z,1.98
2023-01-19T07:06:56.054Z,5.05
2023-01-19T07:11:59.150Z,2.53
2023-01-19T07:17:03.573Z,2.90
2023-01-19T07:22:06.801Z,2.53
2023-01-19T07:27:11.577Z,3.00
2023-01-19T07:32:16.159Z,2.97
2023-01-19T07:37:19.528Z,3.40
2023-01-19T07:42:22.986Z,3.28
2023-01-19T07:47:27.631Z,3.85
2023-01-19T07:52:30.852Z,3.58
2023-01-19T07:57:34.052Z,3.83
2023-01-19T08:02:38.775Z,3.90
2023-01-19T08:07:42.154Z,4.20
2023-01-19T08:12:45.571Z,4.30
2023-01-19T08:17:56.674Z,4.65
2023-01-19T08:23:01.656Z,5.93
2023-01-19T08:28:06.221Z,6.88
2023-01-19T08:33:10.841Z,6.97
2023-01-19T08:38:14.273Z,8.27
2023-01-19T08:43:21.030Z,7.82
2023-01-19T08:48:25.857Z,10.88
2023-01-19T08:53:28.983Z,9.27
2023-01-19T08:58:32.454Z,10.35
2023-01-19T09:03:37.236Z,9.38
2023-01-19T09:08:40.450Z,10.68
2023-01-19T09:13:43.738Z,9.20
2023-01-19T09:18:48.633Z,8.68
2023-01-19T09:23:51.825Z,9.45
2023-01-19T09:28:55.357Z,8.85
2023-01-19T09:33:59.843Z,7.50
2023-01-19T09:39:03.115Z,7.78
2023-01-19T09:44:07.489Z,7.28
2023-01-19T09:49:14.934Z,5.45
2023-01-19T09:54:19.250Z,4.68
2023-01-19T09:59:23.710Z,3.70
2023-01-19T10:04:35.554Z,2.88
2023-01-19T10:09:43.170Z,1.73
2023-01-19T10:14:49.448Z,2.30
2023-01-19T10:19:55.323Z,2.58
2023-01-19T10:25:00.474Z,3.55
2023-01-19T10:30:04.120Z,3.53
2023-01-19T10:35:15.498Z,4.90
2023-01-19T10:40:23.395Z,5.10
2023-01-19T10:45:29.481Z,6.05
2023-01-19T10:50:35.158Z,5.55
2023-01-19T10:55:43.332Z,5.50
2023-01-19T11:00:46.516Z,6.15
2023-01-19T11:05:51.182Z,6.63
2023-01-19T11:10:57.084Z,6.13
2023-01-19T11:16:01.037Z,6.50
2023-01-19T11:21:07.178Z,9.80
2023-01-19T11:26:10.978Z,6.05
2023-01-19T11:31:20.936Z,8.73
2023-01-19T11:36:26.686Z,8.48
2023-01-19T11:41:30.994Z,9.30
2023-01-19T11:46:34.884Z,9.80
2023-01-19T11:51:42.152Z,9.95
2023-01-19T11:56:45.596Z,10.90
2023-01-19T12:01:51.721Z,10.45
2023-01-19T12:06:57.716Z,10.48
2023-01-19T12:12:04.214Z,10.82
2023-01-19T12:17:09.973Z,11.85
2023-01-19T12:22:16.960Z,9.32
2023-01-19T12:27:23.792Z,9.73
2023-01-19T12:32:37.031Z,7.03
2023-01-19T12:37:44.267Z,7.40
2023-01-19T12:42:48.366Z,7.55
2023-01-19T12:47:52.983Z,5.70
2023-01-19T12:52:59.537Z,4.88
2023-01-19T12:58:05.026Z,5.68
2023-01-19T13:03:27.024Z,5.10
2023-01-19T13:08:52.273Z,5.65
2023-01-19T13:14:26.404Z,4.88
2023-01-19T13:19:44.678Z,4.60
2023-01-19T13:25:09.114Z,4.72
2023-01-19T13:30:13.589Z,4.18
2023-01-19T13:35:18.453Z,4.18
2023-01-19T13:40:25.316Z,3.45
2023-01-19T13:45:31.061Z,3.00
2023-01-19T13:50:35.463Z,1.77
2023-01-19T13:55:40.164Z,2.33
2023-01-19T14:00:46.527Z,2.28
2023-01-19T14:05:52.337Z,2.28
2023-01-19T14:11:03.420Z,2.15
2023-01-19T14:16:07.652Z,2.45
2023-01-19T14:21:12.241Z,3.20
2023-01-19T14:26:35.065Z,1.20
2023-01-19T14:31:45.244Z,1.05
2023-01-19T14:36:51.539Z,0.90
2023-01-19T14:41:56.520Z,0.88
2023-01-19T14:47:01.630Z,1.02
2023-01-19T14:52:06.306Z,0.70
2023-01-19T14:57:12.455Z,0.90
2023-01-19T15:02:18.711Z,0.98
2023-01-19T15:07:23.979Z,1.80
2023-01-19T15:12:28.918Z,1.40
2023-01-19T15:17:34.163Z,1.30
2023-01-19T15:22:37.428Z,2.20
2023-01-19T15:27:40.853Z,6.95
2023-01-19T15:32:45.608Z,4.68
2023-01-19T15:37:49.281Z,5.57
2023-01-19T15:42:52.533Z,6.47
2023-01-19T15:47:57.106Z,10.57
2023-01-19T15:53:00.461Z,11.02
2023-01-19T15:58:03.685Z,12.38
2023-01-19T16:03:08.404Z,13.43
2023-01-19T16:08:11.981Z,13.13
2023-01-19T16:13:15.435Z,14.70
2023-01-19T16:18:19.873Z,15.35
2023-01-19T16:23:23.050Z,16.02
2023-01-19T16:28:26.594Z,16.83
2023-01-19T16:33:31.696Z,16.00
2023-01-19T16:38:34.970Z,19.40
2023-01-19T16:43:38.114Z,16.30
2023-01-19T16:48:42.775Z,13.90
2023-01-19T16:53:46.338Z,12.85
2023-01-19T16:58:49.500Z,13.40
2023-01-19T17:03:54.235Z,10.80
2023-01-19T17:08:57.445Z,12.70
2023-01-19T17:14:01.484Z,11.98
2023-01-19T17:19:07.083Z,10.85
2023-01-19T17:24:11.083Z,11.00
2023-01-19T17:29:14.482Z,11.98
2023-01-19T17:34:19.346Z,12.13
2023-01-19T17:39:22.641Z,13.75
2023-01-19T17:44:25.992Z,17.25
2023-01-19T17:49:31.168Z,19.52
2023-01-19T17:54:35.615Z,21.50
2023-01-19T17:59:41.251Z,20.33
2023-01-19T18:04:46.009Z,19.75
2023-01-19T18:09:49.547Z,19.85
2023-01-19T18:14:52.758Z,19.92
2023-01-19T18:19:57.358Z,20.73
2023-01-19T18:25:01.800Z,20.33
2023-01-19T18:30:06.005Z,20.70
2023-01-19T18:35:11.190Z,21.25
2023-01-19T18:40:14.775Z,20.20
2023-01-19T18:45:17.998Z,21.17
2023-01-19T18:50:22.678Z,21.13
2023-01-19T18:55:26.093Z,40.60
2023-01-19T19:00:29.406Z,20.92
2023-01-19T19:05:34.415Z,20.02
2023-01-19T19:10:37.884Z,19.15
2023-01-19T19:15:41.052Z,20.25
2023-01-19T19:20:45.784Z,20.25
2023-01-19T19:25:49.003Z,19.17
2023-01-19T19:31:02.867Z,22.08
2023-01-19T19:36:08.576Z,22.85
2023-01-19T19:41:14.608Z,20.80
2023-01-19T19:46:20.276Z,21.08
2023-01-19T19:51:27.222Z,20.90
2023-01-19T19:56:31.159Z,22.73
2023-01-19T20:01:34.840Z,20.63
2023-01-19T20:06:40.206Z,24.38
2023-01-19T20:11:43.786Z,22.75
2023-01-19T20:16:46.988Z,24.58
2023-01-19T20:21:51.512Z,27.55
2023-01-19T20:26:56.307Z,25.30
2023-01-19T20:31:59.674Z,24.75
2023-01-19T20:37:06.334Z,23.88
2023-01-19T20:42:11.635Z,24.65
2023-01-19T20:47:14.999Z,26.88
2023-01-19T20:52:21.215Z,24.48
2023-01-19T20:57:24.492Z,24.25
2023-01-19T21:02:28.612Z,25.52
2023-01-19T21:07:33.288Z,25.08
2023-01-19T21:12:36.379Z,26.58
2023-01-19T21:17:39.733Z,25.70
2023-01-19T21:22:44.488Z,25.77
2023-01-19T21:27:47.712Z,25.92
2023-01-19T21:32:50.927Z,25.45
2023-01-19T21:37:55.795Z,25.92
2023-01-19T21:42:59.022Z,25.42
2023-01-19T21:48:02.163Z,26.35
2023-01-19T21:53:09.498Z,26.58
2023-01-19T21:58:12.720Z,27.65
2023-01-19T22:03:16.998Z,27.77
2023-01-19T22:08:21.779Z,26.95
2023-01-19T22:13:25.009Z,34.65
2023-01-19T22:18:28.524Z,26.35
2023-01-19T22:23:33.370Z,27.13
2023-01-19T22:28:36.925Z,28.83
2023-01-19T22:33:40.191Z,29.33
2023-01-19T22:38:45.623Z,29.33
2023-01-19T22:43:48.776Z,29.30
2023-01-19T22:48:54.581Z,26.73
2023-01-19T22:53:59.286Z,19.80
2023-01-19T22:59:03.229Z,17.08
2023-01-19T23:04:06.825Z,11.98
2023-01-19T23:09:13.437Z,8.60
2023-01-19T23:14:17.712Z,6.68
2023-01-19T23:19:20.820Z,5.43
2023-01-19T23:24:25.325Z,4.45
2023-01-19T23:29:28.417Z,4.57
2023-01-19T23:34:31.501Z,4.25
2023-01-19T23:39:35.952Z,5.65
2023-01-19T23:44:39.027Z,8.80
2023-01-19T23:49:42.350Z,11.95
2023-01-19T23:54:46.779Z,12.48
2023-01-19T23:59:50.071Z,13.60
